Nearby METAR Reports

 

K1V6 - Canon City, Colorado, USA
Distance from station: E 5mi, 8km
Updated: Sat, 25-May-2019 11:00am MDT
NOT Current
Clear
Clear
 Wind from E
Wind: E 7 mph , 11 km/h
Temperature: 64°F , 18°C
Dew Point: 39°F , 4°C
Humidity: 40%
Barometer: 30.08 inHg , 1018.6 hPa
Clouds: Clear
Visibility: 10 miles , 16 km
2019/05/25 17:00 K1V6 251700Z AUTO 09006KT 10SM CLR 18/04 A3008 RMK AO2
KFCS - Fort Carson, Colorado, USA
Distance from station: NE 28mi, 44km
Updated: Sun, 26-May-2019 3:17am MDT
Overcast
Overcast
 Wind from calm
Wind: Calm
Temperature: 54°F , 12°C
Dew Point: 54°F , 12°C
Humidity: 100%
Barometer: 30.01 inHg , 1016.3 hPa
Clouds: Overcast
Visibility: 10 miles , 16 km
Cloud details: Overcast 400 ft
2019/05/26 09:17 KFCS 260917Z AUTO 00000KT 10SM OVC004 12/12 A3001 RMK AO2 OVC V BKN SLP121 $
 
KCWN - Cheyenne Mtn, Colorado, USA
Distance from station: NE 28mi, 45km
Updated: Fri, 17-May-2019 12:58pm MDT
NOT Current
Few Clouds
Few Clouds
 Wind from SE
Wind: SE 17 mph , 28 km/h, Gust: 30 mph , 48 km/h
Clouds: Few Clouds
Visibility: 10 miles , 16 km
Cloud details: Few Clouds 10000 ft
2019/05/17 18:58 KCWN 171858Z AUTO 14015G26KT 10SM FEW100 M M RMK AO2 PK WND 17027/40 LTG DSNT N SLPNO $
KCOS - Colorado Springs, Colorado, USA
Distance from station: NE 38mi, 60km
Updated: Sun, 26-May-2019 3:04am MDT
Mist, Overcast
Mist, Overcast
 Wind from SE
Wind: SE 3 mph , 6 km/h
Temperature: 54°F , 12°C
Dew Point: 52°F , 11°C
Humidity: 94%
Barometer: 30.05 inHg , 1017.6 hPa
Summary: Mist
Clouds: Overcast
Visibility: 5 miles , 8 km
Cloud details: Mostly cloudy 300 ft
Overcast 800 ft
2019/05/26 09:04 KCOS 260904Z 13003KT 5SM BR BKN003 OVC008 12/11 A3005 RMK AO2 T01220106
 
KPUB - Pueblo, Colorado, USA
Distance from station: ESE 39mi, 63km
Updated: Sun, 26-May-2019 2:53am MDT
Overcast
Overcast
 Wind from NNE
Wind: NNE 6 mph , 9 km/h
Temperature: 59°F , 15°C
Dew Point: 54°F , 12°C
Humidity: 82%
Barometer: 29.96 inHg , 1014.6 hPa
Clouds: Overcast
Visibility: 10 miles , 16 km
Cloud details: Overcast 800 ft
2019/05/26 08:53 KPUB 260853Z AUTO 02005KT 10SM OVC008 15/12 A2996 RMK AO2 SLP091 T01500122 50002
KAFF - Usaf Academy/Cos, Colorado, USA
Distance from station: NNE 41mi, 66km
Updated: Sun, 26-May-2019 2:58am MDT
Overcast
Overcast
 Wind from S
Wind: S 5 mph , 7 km/h
Temperature: 52°F , 11°C
Dew Point: 52°F , 11°C
Humidity: 100%
Barometer: 30.03 inHg , 1016.9 hPa
Clouds: Overcast
Visibility: 10 miles , 16 km
Cloud details: Overcast 1100 ft
2019/05/26 08:58 KAFF 260858Z AUTO 18004KT 10SM OVC011 11/11 A3003 RMK AO2 SLP102 T01080106 55004
 
K4BM - Wilkerson Pass, Colorado, USA
Distance from station: NNW 45mi, 72km
Updated: Sun, 26-May-2019 3:36am MDT
Clear
Clear
 Wind from SSW
Wind: SSW 8 mph , 13 km/h
Temperature: 37°F , 3°C
Wind Chill: 31°F , -1°C
Dew Point: 27°F , -3°C
Humidity: 65%
Barometer: 30.29 inHg , 1025.7 hPa
Clouds: Clear
Visibility: 10 miles , 16 km
2019/05/26 09:36 K4BM 260936Z AUTO 20007KT 180V240 10SM CLR 03/M03 A3029 RMK AO2 LTG DSNT NW
KANK - Salida, Colorado, USA
Distance from station: W 47mi, 75km
Updated: Sun, 26-May-2019 3:55am MDT
Clear
Clear
 Wind from W
Wind: W 3 mph , 6 km/h
Temperature: 41°F , 5°C
Dew Point: 28°F , -2°C
Humidity: 61%
Barometer: 30.19 inHg , 1022.4 hPa
Clouds: Clear
Visibility: 10 miles , 16 km
2019/05/26 09:55 KANK 260955Z AUTO 28003KT 10SM CLR 05/M02 A3019 RMK AO1 T00491020
 
KFLY - Co Spngs Meadow, Colorado, USA
Distance from station: NE 48mi, 78km
Updated: Sun, 26-May-2019 3:35am MDT
Light rain, Overcast
Light rain, Overcast
 Wind from calm
Wind: Calm
Temperature: 52°F , 11°C
Dew Point: 52°F , 11°C
Humidity: 100%
Barometer: 30.08 inHg , 1018.6 hPa
Summary: Light rain
Clouds: Overcast
Visibility: 1 1/4 miles , 2 km
Cloud details: Overcast 300 ft
2019/05/26 09:35 KFLY 260935Z AUTO 00000KT 1 1/4SM -RA OVC003 11/11 A3008 RMK AO2 T01070105
KABH - Ellicott-B Afa, Colorado, USA
Distance from station: ENE 53mi, 85km
Updated: Thu, 23-May-2019 7:56am MDT
NOT Current
Overcast
Overcast
 Wind from calm
Wind: Calm
Barometer: 30.12 inHg , 1020 hPa
Clouds: Overcast
Cloud details: Overcast 3700 ft
2019/05/23 13:56 KABH 231356Z AUTO 00000KT OVC037 A3012 RMK AO2 SLPNO $
 
KAEJ - Buena Vista, Colorado, USA
Distance from station: WNW 56mi, 90km
Updated: Sun, 26-May-2019 3:35am MDT
Clear
Clear
 Wind from W
Wind: W 7 mph , 11 km/h
Temperature: 34°F , 1°C
Wind Chill: 28°F , -2°C
Dew Point: 28°F , -2°C
Humidity: 81%
Barometer: 30.13 inHg , 1020.3 hPa
Clouds: Clear
Visibility: 10 miles , 16 km
2019/05/26 09:35 KAEJ 260935Z AUTO 27006KT 10SM CLR 01/M02 A3013 RMK AO2 T00131025
K04V - Saguache Muni, Colorado, USA
Distance from station: WSW 58mi, 93km
Updated: Sun, 26-May-2019 3:36am MDT
Clear
Clear
 Wind from calm
Wind: Calm
Temperature: 36°F , 2°C
Dew Point: 19°F , -7°C
Humidity: 52%
Barometer: 30.14 inHg , 1020.7 hPa
Clouds: Clear
Visibility: 10 miles , 16 km
2019/05/26 09:36 K04V 260936Z AUTO 00000KT 10SM CLR 02/M07 A3014 RMK AO2
 
K7BM - Cottonwood Pass, Colorado, USA
Distance from station: WNW 60mi, 96km
Updated: Sun, 26-May-2019 3:24am MDT
Clear
Clear
 Wind from ESE
Wind: ESE 3 mph , 6 km/h
Temperature: 45°F , 7°C
Dew Point: 32°F , 0°C
Humidity: 61%
Barometer: 30.21 inHg , 1023 hPa
Clouds: Clear
Visibility: 10 miles , 16 km
2019/05/26 09:24 K7BM 260924Z AUTO 12003KT 10SM CLR 07/00 A3021 RMK AO2
KMNH - Monument/Elbert, Colorado, USA
Distance from station: NNE 61mi, 98km
Updated: Sun, 26-May-2019 3:30am MDT
Overcast
Overcast
 Wind from S
Wind: S 8 mph , 13 km/h
Temperature: 46°F , 8°C
Wind Chill: 42°F , 6°C
Dew Point: 46°F , 8°C
Humidity: 100%
Barometer: 30.08 inHg , 1018.6 hPa
Clouds: Overcast
Visibility: 7 miles , 11 km
Cloud details: Overcast 400 ft
2019/05/26 09:30 KMNH 260930Z AUTO 17007KT 7SM OVC004 08/08 A3008 RMK AO2
 
KMYP - Monarch Pass, Colorado, USA
Distance from station: W 61mi, 98km
Updated: Sun, 26-May-2019 3:36am MDT
Clear
Clear
 
Temperature: 34°F , 1°C
Dew Point: 12°F , -11°C
Humidity: 41%
Barometer: 30.41 inHg , 1029.8 hPa
Clouds: Clear
Visibility: 10 miles , 16 km
2019/05/26 09:36 KMYP 260936Z AUTO 10SM CLR 01/M11 A3041 RMK AO2
KALS - Alamosa, Colorado, USA
Distance from station: SSW 79mi, 127km
Updated: Sun, 26-May-2019 2:52am MDT
Clear
Clear
 Wind from SE
Wind: SE 7 mph , 11 km/h
Temperature: 39°F , 4°C
Wind Chill: 34°F , 1°C
Dew Point: 25°F , -4°C
Humidity: 56%
Barometer: 30.11 inHg , 1019.6 hPa
Clouds: Clear
Visibility: 10 miles , 16 km
2019/05/26 08:52 KALS 260852Z AUTO 14006KT 10SM CLR 04/M04 A3011 RMK AO2 SLP121 T00391044 53010
 
KAPA - Denver/Arapahoe, Colorado, USA
Distance from station: NNE 79mi, 128km
Updated: Sun, 26-May-2019 2:53am MDT
Clear
Clear
 Wind from SE
Wind: SE 6 mph , 9 km/h
Temperature: 52°F , 11°C
Dew Point: 46°F , 8°C
Humidity: 82%
Barometer: 29.98 inHg , 1015.2 hPa
Clouds: Clear
Visibility: 10 miles , 16 km
2019/05/26 08:53 KAPA 260853Z 13005KT 10SM CLR 11/08 A2998 RMK AO2 SLP098 T01110083 55004
KRCV - Del Norte, Colorado, USA
Distance from station: SW 81mi, 130km
Updated: Sun, 26-May-2019 3:35am MDT
Clear
Clear
 Wind from W
Wind: W 10 mph , 17 km/h
Temperature: 39°F , 4°C
Wind Chill: 32°F , 0°C
Dew Point: 19°F , -7°C
Humidity: 45%
Barometer: 30.14 inHg , 1020.7 hPa
Clouds: Clear
Visibility: 10 miles , 16 km
2019/05/26 09:35 KRCV 260935Z AUTO 26009KT 10SM CLR 04/M07 A3014 RMK AO2 T00351070
 
KLXV - Leadville, Colorado, USA
Distance from station: NW 81mi, 131km
Updated: Sun, 26-May-2019 2:53am MDT
Clear
Clear
 Wind from NE
Wind: NE 3 mph , 6 km/h
Temperature: 30°F , -1°C
Dew Point: 18°F , -8°C
Humidity: 59%
Barometer: 30.19 inHg , 1022.4 hPa
Clouds: Clear
Visibility: 10 miles , 16 km
2019/05/26 08:53 KLXV 260853Z AUTO 04003KT 10SM CLR M01/M08 A3019 RMK AO2 SLP108 T10061083 53000 $
KCCU - Red Cliff Pass, Colorado, USA
Distance from station: NW 88mi, 142km
Updated: Sun, 26-May-2019 3:36am MDT
Clear
Clear
 Wind from SSE
Wind: SSE 14 mph , 22 km/h, Gust: 21 mph , 33 km/h
Temperature: 37°F , 3°C
Wind Chill: 28°F , -2°C
Dew Point: 14°F , -10°C
Humidity: 38%
Barometer: 30.29 inHg , 1025.7 hPa
Clouds: Clear
Visibility: 10 miles , 16 km
2019/05/26 09:36 KCCU 260936Z AUTO 15012G18KT 10SM CLR 03/M10 A3029 RMK AO2